sensor_id;sensor_type;location;lat;lon;timestamp;temperature;humidity
939;DHT22;456;53.584;9.968;2023-11-18T00:01:23;17.30;22.80
939;DHT22;456;53.584;9.968;2023-11-18T00:03:49;17.30;22.80
939;DHT22;456;53.584;9.968;2023-11-18T00:06:14;17.30;22.80
939;DHT22;456;53.584;9.968;2023-11-18T00:08:40;17.20;22.60
939;DHT22;456;53.584;9.968;2023-11-18T00:11:06;17.30;22.60
939;DHT22;456;53.584;9.968;2023-11-18T00:13:32;17.30;22.60
939;DHT22;456;53.584;9.968;2023-11-18T00:15:58;17.30;22.60
939;DHT22;456;53.584;9.968;2023-11-18T00:18:23;17.30;22.80
939;DHT22;456;53.584;9.968;2023-11-18T00:20:49;17.20;22.50
939;DHT22;456;53.584;9.968;2023-11-18T00:23:16;17.20;22.50
939;DHT22;456;53.584;9.968;2023-11-18T00:25:43;17.20;22.50
939;DHT22;456;53.584;9.968;2023-11-18T00:28:10;17.20;22.30
939;DHT22;456;53.584;9.968;2023-11-18T00:30:37;17.20;22.30
939;DHT22;456;53.584;9.968;2023-11-18T00:33:02;17.20;22.30
939;DHT22;456;53.584;9.968;2023-11-18T00:35:28;17.20;22.30
939;DHT22;456;53.584;9.968;2023-11-18T00:37:59;17.20;22.40
939;DHT22;456;53.584;9.968;2023-11-18T00:40:25;17.20;22.30
939;DHT22;456;53.584;9.968;2023-11-18T00:42:51;17.20;22.30
939;DHT22;456;53.584;9.968;2023-11-18T00:45:16;17.20;22.40
939;DHT22;456;53.584;9.968;2023-11-18T00:47:43;17.20;22.50
939;DHT22;456;53.584;9.968;2023-11-18T00:50:09;17.20;22.10
939;DHT22;456;53.584;9.968;2023-11-18T00:52:35;17.20;22.00
939;DHT22;456;53.584;9.968;2023-11-18T00:55:04;17.20;22.00
939;DHT22;456;53.584;9.968;2023-11-18T00:57:31;17.20;22.10
939;DHT22;456;53.584;9.968;2023-11-18T00:59:57;17.20;21.90
939;DHT22;456;53.584;9.968;2023-11-18T01:02:23;17.20;22.00
939;DHT22;456;53.584;9.968;2023-11-18T01:04:49;17.20;22.30
939;DHT22;456;53.584;9.968;2023-11-18T01:07:15;17.20;23.10
939;DHT22;456;53.584;9.968;2023-11-18T01:09:41;17.30;23.80
939;DHT22;456;53.584;9.968;2023-11-18T01:12:07;17.30;24.00
939;DHT22;456;53.584;9.968;2023-11-18T01:14:38;17.30;24.00
939;DHT22;456;53.584;9.968;2023-11-18T01:17:05;17.40;23.90
939;DHT22;456;53.584;9.968;2023-11-18T01:19:31;17.40;23.90
939;DHT22;456;53.584;9.968;2023-11-18T01:21:57;17.40;23.90
939;DHT22;456;53.584;9.968;2023-11-18T01:24:22;17.40;23.90
939;DHT22;456;53.584;9.968;2023-11-18T01:26:48;17.40;24.10
939;DHT22;456;53.584;9.968;2023-11-18T01:29:13;17.40;24.20
939;DHT22;456;53.584;9.968;2023-11-18T01:31:39;17.40;24.30
939;DHT22;456;53.584;9.968;2023-11-18T01:34:08;17.40;24.30
939;DHT22;456;53.584;9.968;2023-11-18T01:36:33;17.40;24.30
939;DHT22;456;53.584;9.968;2023-11-18T01:38:59;17.40;24.30
939;DHT22;456;53.584;9.968;2023-11-18T01:41:25;17.40;24.30
939;DHT22;456;53.584;9.968;2023-11-18T01:43:51;17.40;24.20
939;DHT22;456;53.584;9.968;2023-11-18T01:46:18;17.40;24.40
939;DHT22;456;53.584;9.968;2023-11-18T01:48:44;17.40;24.60
939;DHT22;456;53.584;9.968;2023-11-18T01:51:09;17.40;24.30
939;DHT22;456;53.584;9.968;2023-11-18T01:53:37;17.40;24.00
939;DHT22;456;53.584;9.968;2023-11-18T01:56:05;17.40;24.20
939;DHT22;456;53.584;9.968;2023-11-18T01:58:33;17.50;24.30
939;DHT22;456;53.584;9.968;2023-11-18T02:01:02;17.50;24.40
939;DHT22;456;53.584;9.968;2023-11-18T02:03:27;17.50;24.40
939;DHT22;456;53.584;9.968;2023-11-18T02:05:53;17.50;24.40
939;DHT22;456;53.584;9.968;2023-11-18T02:08:19;17.40;24.30
939;DHT22;456;53.584;9.968;2023-11-18T02:10:55;17.50;24.20
939;DHT22;456;53.584;9.968;2023-11-18T02:13:24;17.40;24.40
939;DHT22;456;53.584;9.968;2023-11-18T02:15:54;17.40;24.40
939;DHT22;456;53.584;9.968;2023-11-18T02:18:25;17.50;24.60
939;DHT22;456;53.584;9.968;2023-11-18T02:20:53;17.50;24.80
939;DHT22;456;53.584;9.968;2023-11-18T02:23:20;17.50;23.90
939;DHT22;456;53.584;9.968;2023-11-18T02:25:48;17.50;23.90
939;DHT22;456;53.584;9.968;2023-11-18T02:28:14;17.50;23.90
939;DHT22;456;53.584;9.968;2023-11-18T02:30:41;17.50;23.90
939;DHT22;456;53.584;9.968;2023-11-18T02:33:33;17.50;24.10
939;DHT22;456;53.584;9.968;2023-11-18T02:36:26;17.50;24.10
939;DHT22;456;53.584;9.968;2023-11-18T02:39:01;17.50;24.20
939;DHT22;456;53.584;9.968;2023-11-18T02:41:34;17.50;24.20
939;DHT22;456;53.584;9.968;2023-11-18T02:44:04;17.50;24.30
939;DHT22;456;53.584;9.968;2023-11-18T02:46:34;17.50;24.30
939;DHT22;456;53.584;9.968;2023-11-18T02:49:01;17.50;24.30
939;DHT22;456;53.584;9.968;2023-11-18T02:51:27;17.40;24.30
939;DHT22;456;53.584;9.968;2023-11-18T02:53:53;17.50;24.10
939;DHT22;456;53.584;9.968;2023-11-18T02:56:20;17.50;23.90
939;DHT22;456;53.584;9.968;2023-11-18T02:58:46;17.50;23.90
939;DHT22;456;53.584;9.968;2023-11-18T03:01:11;17.50;24.10
939;DHT22;456;53.584;9.968;2023-11-18T03:03:37;17.50;24.20
939;DHT22;456;53.584;9.968;2023-11-18T03:06:02;17.50;24.10
939;DHT22;456;53.584;9.968;2023-11-18T03:08:29;17.50;24.20
939;DHT22;456;53.584;9.968;2023-11-18T03:10:55;17.50;24.00
939;DHT22;456;53.584;9.968;2023-11-18T03:13:20;17.50;24.10
939;DHT22;456;53.584;9.968;2023-11-18T03:15:46;17.50;23.90
939;DHT22;456;53.584;9.968;2023-11-18T03:18:14;17.50;24.10
939;DHT22;456;53.584;9.968;2023-11-18T03:20:40;17.50;24.10
939;DHT22;456;53.584;9.968;2023-11-18T03:23:06;17.50;23.90
939;DHT22;456;53.584;9.968;2023-11-18T03:25:34;17.50;23.90
939;DHT22;456;53.584;9.968;2023-11-18T03:28:00;17.50;23.90
939;DHT22;456;53.584;9.968;2023-11-18T03:30:26;17.50;23.90
939;DHT22;456;53.584;9.968;2023-11-18T03:32:54;17.50;23.90
939;DHT22;456;53.584;9.968;2023-11-18T03:35:20;17.50;23.90
939;DHT22;456;53.584;9.968;2023-11-18T03:37:46;17.50;23.90
939;DHT22;456;53.584;9.968;2023-11-18T03:40:13;17.50;23.90
939;DHT22;456;53.584;9.968;2023-11-18T03:42:42;17.50;23.90
939;DHT22;456;53.584;9.968;2023-11-18T03:45:08;17.50;23.90
939;DHT22;456;53.584;9.968;2023-11-18T03:47:35;17.50;23.90
939;DHT22;456;53.584;9.968;2023-11-18T03:50:00;17.50;23.90
939;DHT22;456;53.584;9.968;2023-11-18T03:52:26;17.50;23.90
939;DHT22;456;53.584;9.968;2023-11-18T03:54:53;17.50;23.90
939;DHT22;456;53.584;9.968;2023-11-18T03:57:18;17.50;23.90
939;DHT22;456;53.584;9.968;2023-11-18T03:59:44;17.50;23.90
939;DHT22;456;53.584;9.968;2023-11-18T04:02:10;17.50;23.90
939;DHT22;456;53.584;9.968;2023-11-18T04:04:37;17.50;23.90
939;DHT22;456;53.584;9.968;2023-11-18T04:07:03;17.50;23.90
939;DHT22;456;53.584;9.968;2023-11-18T04:09:29;17.50;23.90
939;DHT22;456;53.584;9.968;2023-11-18T04:11:55;17.50;23.90
939;DHT22;456;53.584;9.968;2023-11-18T04:14:20;17.50;23.90
939;DHT22;456;53.584;9.968;2023-11-18T04:16:47;17.50;23.90
939;DHT22;456;53.584;9.968;2023-11-18T04:19:12;17.50;24.00
939;DHT22;456;53.584;9.968;2023-11-18T04:21:38;17.50;23.90
939;DHT22;456;53.584;9.968;2023-11-18T04:24:05;17.50;23.90
939;DHT22;456;53.584;9.968;2023-11-18T04:26:31;17.50;23.90
939;DHT22;456;53.584;9.968;2023-11-18T04:28:57;17.60;24.00
939;DHT22;456;53.584;9.968;2023-11-18T04:31:23;17.50;23.90
939;DHT22;456;53.584;9.968;2023-11-18T04:33:48;17.50;23.90
939;DHT22;456;53.584;9.968;2023-11-18T04:36:14;17.50;23.90
939;DHT22;456;53.584;9.968;2023-11-18T04:38:42;17.50;23.90
939;DHT22;456;53.584;9.968;2023-11-18T04:41:07;17.50;23.90
939;DHT22;456;53.584;9.968;2023-11-18T04:43:33;17.50;23.90
939;DHT22;456;53.584;9.968;2023-11-18T04:45:59;17.50;23.90
939;DHT22;456;53.584;9.968;2023-11-18T04:48:25;17.50;23.90
939;DHT22;456;53.584;9.968;2023-11-18T04:50:50;17.50;24.00
939;DHT22;456;53.584;9.968;2023-11-18T04:53:16;17.50;23.90
939;DHT22;456;53.584;9.968;2023-11-18T04:55:42;17.60;24.00
939;DHT22;456;53.584;9.968;2023-11-18T04:58:07;17.50;23.90
939;DHT22;456;53.584;9.968;2023-11-18T05:00:35;17.60;24.00
939;DHT22;456;53.584;9.968;2023-11-18T05:03:03;17.50;24.00
939;DHT22;456;53.584;9.968;2023-11-18T05:05:29;17.50;23.90
939;DHT22;456;53.584;9.968;2023-11-18T05:07:55;17.50;23.90
939;DHT22;456;53.584;9.968;2023-11-18T05:10:20;17.50;23.90
939;DHT22;456;53.584;9.968;2023-11-18T05:12:46;17.50;23.90
939;DHT22;456;53.584;9.968;2023-11-18T05:15:21;17.50;23.90
939;DHT22;456;53.584;9.968;2023-11-18T05:17:50;17.50;23.80
939;DHT22;456;53.584;9.968;2023-11-18T05:20:16;17.60;23.60
939;DHT22;456;53.584;9.968;2023-11-18T05:22:42;17.50;23.90
939;DHT22;456;53.584;9.968;2023-11-18T05:25:07;17.50;23.90
939;DHT22;456;53.584;9.968;2023-11-18T05:27:35;17.50;23.90
939;DHT22;456;53.584;9.968;2023-11-18T05:30:00;17.50;23.90
939;DHT22;456;53.584;9.968;2023-11-18T05:32:29;17.50;23.90
939;DHT22;456;53.584;9.968;2023-11-18T05:34:55;17.50;23.90
939;DHT22;456;53.584;9.968;2023-11-18T05:37:23;17.50;24.50
939;DHT22;456;53.584;9.968;2023-11-18T05:39:49;17.50;23.90
939;DHT22;456;53.584;9.968;2023-11-18T05:42:24;17.50;23.90
939;DHT22;456;53.584;9.968;2023-11-18T05:44:50;17.50;23.90
939;DHT22;456;53.584;9.968;2023-11-18T05:47:23;17.50;23.70
939;DHT22;456;53.584;9.968;2023-11-18T05:49:49;17.50;24.40
939;DHT22;456;53.584;9.968;2023-11-18T05:52:14;17.50;23.90
939;DHT22;456;53.584;9.968;2023-11-18T05:54:40;17.60;24.00
939;DHT22;456;53.584;9.968;2023-11-18T05:57:05;17.50;23.90
939;DHT22;456;53.584;9.968;2023-11-18T05:59:31;17.60;23.60
939;DHT22;456;53.584;9.968;2023-11-18T06:01:56;17.60;23.40
939;DHT22;456;53.584;9.968;2023-11-18T06:04:22;17.60;23.60
939;DHT22;456;53.584;9.968;2023-11-18T06:06:48;17.60;23.80
939;DHT22;456;53.584;9.968;2023-11-18T06:09:13;17.60;24.00
939;DHT22;456;53.584;9.968;2023-11-18T06:11:46;17.60;24.00
939;DHT22;456;53.584;9.968;2023-11-18T06:14:12;17.60;24.00
939;DHT22;456;53.584;9.968;2023-11-18T06:16:38;17.50;23.90
939;DHT22;456;53.584;9.968;2023-11-18T06:19:05;17.50;23.90
939;DHT22;456;53.584;9.968;2023-11-18T06:21:31;17.50;23.90
939;DHT22;456;53.584;9.968;2023-11-18T06:23:58;17.50;23.90
939;DHT22;456;53.584;9.968;2023-11-18T06:26:24;17.50;23.60
939;DHT22;456;53.584;9.968;2023-11-18T06:28:52;17.60;23.30
939;DHT22;456;53.584;9.968;2023-11-18T06:31:19;17.60;22.90
939;DHT22;456;53.584;9.968;2023-11-18T06:33:46;17.60;22.80
939;DHT22;456;53.584;9.968;2023-11-18T06:38:45;17.70;22.80
939;DHT22;456;53.584;9.968;2023-11-18T06:41:11;17.70;22.70
939;DHT22;456;53.584;9.968;2023-11-18T06:43:43;17.70;22.70
939;DHT22;456;53.584;9.968;2023-11-18T06:46:25;17.80;22.70
939;DHT22;456;53.584;9.968;2023-11-18T06:48:52;17.70;22.70
939;DHT22;456;53.584;9.968;2023-11-18T06:51:23;17.70;22.70
939;DHT22;456;53.584;9.968;2023-11-18T06:53:52;17.70;22.60
939;DHT22;456;53.584;9.968;2023-11-18T06:56:20;17.70;22.50
939;DHT22;456;53.584;9.968;2023-11-18T06:58:46;17.70;22.70
939;DHT22;456;53.584;9.968;2023-11-18T07:01:14;17.70;22.80
939;DHT22;456;53.584;9.968;2023-11-18T07:03:44;17.70;22.60
939;DHT22;456;53.584;9.968;2023-11-18T07:06:10;17.80;22.60
939;DHT22;456;53.584;9.968;2023-11-18T07:08:36;17.80;23.10
939;DHT22;456;53.584;9.968;2023-11-18T07:11:03;17.70;22.60
939;DHT22;456;53.584;9.968;2023-11-18T07:13:29;17.70;22.60
939;DHT22;456;53.584;9.968;2023-11-18T07:15:54;17.70;22.60
939;DHT22;456;53.584;9.968;2023-11-18T07:18:22;17.80;22.80
939;DHT22;456;53.584;9.968;2023-11-18T07:20:48;17.80;22.70
939;DHT22;456;53.584;9.968;2023-11-18T07:23:15;17.80;22.80
939;DHT22;456;53.584;9.968;2023-11-18T07:25:43;17.80;22.70
939;DHT22;456;53.584;9.968;2023-11-18T07:28:09;17.80;22.80
939;DHT22;456;53.584;9.968;2023-11-18T07:30:35;17.80;22.80
939;DHT22;456;53.584;9.968;2023-11-18T07:33:02;17.80;22.80
939;DHT22;456;53.584;9.968;2023-11-18T07:35:28;17.80;22.80
939;DHT22;456;53.584;9.968;2023-11-18T07:37:55;17.80;22.90
939;DHT22;456;53.584;9.968;2023-11-18T07:40:21;17.70;22.70
939;DHT22;456;53.584;9.968;2023-11-18T07:42:56;17.80;22.80
939;DHT22;456;53.584;9.968;2023-11-18T07:45:22;17.80;22.80
939;DHT22;456;53.584;9.968;2023-11-18T07:47:51;17.80;22.80
939;DHT22;456;53.584;9.968;2023-11-18T07:50:18;17.80;22.80
939;DHT22;456;53.584;9.968;2023-11-18T07:52:46;17.90;22.90
939;DHT22;456;53.584;9.968;2023-11-18T07:55:12;17.90;22.90
939;DHT22;456;53.584;9.968;2023-11-18T07:57:39;17.90;22.90
939;DHT22;456;53.584;9.968;2023-11-18T08:00:05;17.90;22.90
939;DHT22;456;53.584;9.968;2023-11-18T08:02:37;17.90;22.90
939;DHT22;456;53.584;9.968;2023-11-18T08:05:04;17.90;22.90
939;DHT22;456;53.584;9.968;2023-11-18T08:07:35;17.90;23.00
939;DHT22;456;53.584;9.968;2023-11-18T08:10:02;17.90;22.90
939;DHT22;456;53.584;9.968;2023-11-18T08:12:30;18.00;23.10
939;DHT22;456;53.584;9.968;2023-11-18T08:14:56;18.00;23.00
939;DHT22;456;53.584;9.968;2023-11-18T08:17:23;18.00;23.10
939;DHT22;456;53.584;9.968;2023-11-18T08:19:51;18.00;23.10
939;DHT22;456;53.584;9.968;2023-11-18T08:22:17;18.00;23.10
939;DHT22;456;53.584;9.968;2023-11-18T08:24:44;17.90;23.10
939;DHT22;456;53.584;9.968;2023-11-18T08:27:10;17.90;23.20
939;DHT22;456;53.584;9.968;2023-11-18T08:29:36;17.90;23.20
939;DHT22;456;53.584;9.968;2023-11-18T08:32:04;17.90;23.20
939;DHT22;456;53.584;9.968;2023-11-18T08:34:30;17.90;23.30
939;DHT22;456;53.584;9.968;2023-11-18T08:36:58;17.90;23.30
939;DHT22;456;53.584;9.968;2023-11-18T08:39:25;17.90;23.30
939;DHT22;456;53.584;9.968;2023-11-18T08:41:51;17.90;23.40
939;DHT22;456;53.584;9.968;2023-11-18T08:44:17;17.90;23.40
939;DHT22;456;53.584;9.968;2023-11-18T08:46:43;17.90;23.40
939;DHT22;456;53.584;9.968;2023-11-18T08:49:09;17.90;23.40
939;DHT22;456;53.584;9.968;2023-11-18T08:51:40;17.90;23.40
939;DHT22;456;53.584;9.968;2023-11-18T08:54:08;17.90;23.40
939;DHT22;456;53.584;9.968;2023-11-18T08:56:51;17.90;23.30
939;DHT22;456;53.584;9.968;2023-11-18T08:59:20;17.90;23.30
939;DHT22;456;53.584;9.968;2023-11-18T09:01:54;17.90;23.70
939;DHT22;456;53.584;9.968;2023-11-18T09:04:27;17.90;23.40
939;DHT22;456;53.584;9.968;2023-11-18T09:06:53;17.90;23.40
939;DHT22;456;53.584;9.968;2023-11-18T09:09:22;17.90;23.40
939;DHT22;456;53.584;9.968;2023-11-18T09:11:54;17.90;23.40
939;DHT22;456;53.584;9.968;2023-11-18T09:14:22;17.90;23.40
939;DHT22;456;53.584;9.968;2023-11-18T09:16:50;17.90;23.50
939;DHT22;456;53.584;9.968;2023-11-18T09:19:16;17.90;23.50
939;DHT22;456;53.584;9.968;2023-11-18T09:21:42;18.00;23.60
939;DHT22;456;53.584;9.968;2023-11-18T09:24:09;18.00;23.50
939;DHT22;456;53.584;9.968;2023-11-18T09:26:39;18.00;23.50
939;DHT22;456;53.584;9.968;2023-11-18T09:29:05;18.00;23.50
939;DHT22;456;53.584;9.968;2023-11-18T09:31:36;18.00;23.50
939;DHT22;456;53.584;9.968;2023-11-18T09:34:03;18.00;23.50
939;DHT22;456;53.584;9.968;2023-11-18T09:36:32;18.00;23.70
939;DHT22;456;53.584;9.968;2023-11-18T09:38:59;18.00;23.60
939;DHT22;456;53.584;9.968;2023-11-18T09:41:25;18.00;23.60
939;DHT22;456;53.584;9.968;2023-11-18T09:43:53;18.00;23.70
939;DHT22;456;53.584;9.968;2023-11-18T09:46:22;18.00;23.70
939;DHT22;456;53.584;9.968;2023-11-18T09:48:59;18.00;23.80
939;DHT22;456;53.584;9.968;2023-11-18T09:51:31;18.00;23.70
939;DHT22;456;53.584;9.968;2023-11-18T09:54:01;18.00;23.80
939;DHT22;456;53.584;9.968;2023-11-18T10:01:53;18.00;23.90
939;DHT22;456;53.584;9.968;2023-11-18T10:04:23;18.00;23.90
939;DHT22;456;53.584;9.968;2023-11-18T10:06:56;18.00;23.90
939;DHT22;456;53.584;9.968;2023-11-18T10:09:23;18.00;23.90
939;DHT22;456;53.584;9.968;2023-11-18T10:12:03;18.00;23.90
939;DHT22;456;53.584;9.968;2023-11-18T10:14:35;18.00;23.90
939;DHT22;456;53.584;9.968;2023-11-18T10:17:05;18.00;23.90
939;DHT22;456;53.584;9.968;2023-11-18T10:19:54;18.00;23.80
939;DHT22;456;53.584;9.968;2023-11-18T10:22:27;18.00;23.90
939;DHT22;456;53.584;9.968;2023-11-18T10:24:56;18.00;23.80
939;DHT22;456;53.584;9.968;2023-11-18T10:27:27;18.00;23.80
939;DHT22;456;53.584;9.968;2023-11-18T10:30:06;18.00;23.90
939;DHT22;456;53.584;9.968;2023-11-18T10:32:56;18.00;23.80
939;DHT22;456;53.584;9.968;2023-11-18T10:35:31;18.00;23.90
939;DHT22;456;53.584;9.968;2023-11-18T10:37:57;18.00;24.10
939;DHT22;456;53.584;9.968;2023-11-18T10:40:24;18.00;24.00
939;DHT22;456;53.584;9.968;2023-11-18T10:42:50;18.00;24.10
939;DHT22;456;53.584;9.968;2023-11-18T10:45:27;18.00;23.90
939;DHT22;456;53.584;9.968;2023-11-18T10:47:54;18.00;24.10
939;DHT22;456;53.584;9.968;2023-11-18T10:50:21;18.00;24.10
939;DHT22;456;53.584;9.968;2023-11-18T10:52:48;18.00;24.10
939;DHT22;456;53.584;9.968;2023-11-18T10:55:13;18.00;24.70
939;DHT22;456;53.584;9.968;2023-11-18T10:57:45;18.00;24.30
939;DHT22;456;53.584;9.968;2023-11-18T11:00:11;18.00;24.30
939;DHT22;456;53.584;9.968;2023-11-18T11:02:41;18.00;24.30
939;DHT22;456;53.584;9.968;2023-11-18T11:05:07;18.00;24.30
939;DHT22;456;53.584;9.968;2023-11-18T11:07:33;18.00;24.30
939;DHT22;456;53.584;9.968;2023-11-18T11:10:00;18.00;24.30
939;DHT22;456;53.584;9.968;2023-11-18T11:12:33;18.00;24.30
939;DHT22;456;53.584;9.968;2023-11-18T11:15:12;18.00;24.30
939;DHT22;456;53.584;9.968;2023-11-18T11:17:50;18.00;24.30
939;DHT22;456;53.584;9.968;2023-11-18T11:20:21;18.00;24.30
939;DHT22;456;53.584;9.968;2023-11-18T11:26:13;18.10;24.40
939;DHT22;456;53.584;9.968;2023-11-18T11:28:58;18.10;24.40
939;DHT22;456;53.584;9.968;2023-11-18T11:31:35;18.10;24.40
939;DHT22;456;53.584;9.968;2023-11-18T11:34:05;18.10;24.40
939;DHT22;456;53.584;9.968;2023-11-18T11:36:46;18.10;24.40
939;DHT22;456;53.584;9.968;2023-11-18T11:39:13;18.10;24.40
939;DHT22;456;53.584;9.968;2023-11-18T11:41:46;18.10;24.40
939;DHT22;456;53.584;9.968;2023-11-18T11:44:13;18.10;24.40
939;DHT22;456;53.584;9.968;2023-11-18T11:46:39;18.10;24.40
939;DHT22;456;53.584;9.968;2023-11-18T11:49:09;18.10;24.40
939;DHT22;456;53.584;9.968;2023-11-18T11:54:38;18.10;24.40
939;DHT22;456;53.584;9.968;2023-11-18T11:57:05;18.10;24.40
939;DHT22;456;53.584;9.968;2023-11-18T12:02:21;18.10;24.40
939;DHT22;456;53.584;9.968;2023-11-18T12:04:50;18.00;24.30
939;DHT22;456;53.584;9.968;2023-11-18T12:07:27;18.00;24.30
939;DHT22;456;53.584;9.968;2023-11-18T12:09:57;18.00;24.30
939;DHT22;456;53.584;9.968;2023-11-18T12:12:24;18.00;24.30
939;DHT22;456;53.584;9.968;2023-11-18T12:17:18;18.00;24.30
939;DHT22;456;53.584;9.968;2023-11-18T12:19:48;18.00;24.30
939;DHT22;456;53.584;9.968;2023-11-18T12:22:15;18.00;24.30
939;DHT22;456;53.584;9.968;2023-11-18T12:24:45;18.00;24.30
939;DHT22;456;53.584;9.968;2023-11-18T12:27:12;18.00;24.30
939;DHT22;456;53.584;9.968;2023-11-18T12:29:42;18.00;24.30
939;DHT22;456;53.584;9.968;2023-11-18T12:32:11;18.00;24.30
939;DHT22;456;53.584;9.968;2023-11-18T12:34:55;18.00;24.30
939;DHT22;456;53.584;9.968;2023-11-18T12:37:51;18.00;24.30
939;DHT22;456;53.584;9.968;2023-11-18T12:43:00;18.10;24.40
939;DHT22;456;53.584;9.968;2023-11-18T12:48:20;18.10;24.30
939;DHT22;456;53.584;9.968;2023-11-18T12:50:53;18.10;24.40
939;DHT22;456;53.584;9.968;2023-11-18T12:53:21;18.10;24.40
939;DHT22;456;53.584;9.968;2023-11-18T12:55:49;18.10;24.30
939;DHT22;456;53.584;9.968;2023-11-18T12:58:16;18.10;24.40
939;DHT22;456;53.584;9.968;2023-11-18T13:00:43;18.10;24.40
939;DHT22;456;53.584;9.968;2023-11-18T13:03:10;18.10;24.40
939;DHT22;456;53.584;9.968;2023-11-18T13:05:37;18.10;24.40
939;DHT22;456;53.584;9.968;2023-11-18T13:08:04;18.10;24.40
939;DHT22;456;53.584;9.968;2023-11-18T13:10:29;18.10;24.40
939;DHT22;456;53.584;9.968;2023-11-18T13:12:55;18.10;24.40
939;DHT22;456;53.584;9.968;2023-11-18T13:15:24;18.10;24.40
939;DHT22;456;53.584;9.968;2023-11-18T13:18:00;18.10;24.40
939;DHT22;456;53.584;9.968;2023-11-18T13:20:26;18.10;24.40
939;DHT22;456;53.584;9.968;2023-11-18T13:22:52;18.10;24.40
939;DHT22;456;53.584;9.968;2023-11-18T13:25:24;18.10;24.40
939;DHT22;456;53.584;9.968;2023-11-18T13:27:50;18.10;24.40
939;DHT22;456;53.584;9.968;2023-11-18T13:30:17;18.10;24.40
939;DHT22;456;53.584;9.968;2023-11-18T13:32:43;18.10;24.40
939;DHT22;456;53.584;9.968;2023-11-18T13:35:12;18.10;24.40
939;DHT22;456;53.584;9.968;2023-11-18T13:37:48;18.10;24.40
939;DHT22;456;53.584;9.968;2023-11-18T13:40:14;18.10;24.40
939;DHT22;456;53.584;9.968;2023-11-18T13:42:43;18.10;24.40
939;DHT22;456;53.584;9.968;2023-11-18T13:45:12;18.10;24.40
939;DHT22;456;53.584;9.968;2023-11-18T13:47:48;18.10;24.40
939;DHT22;456;53.584;9.968;2023-11-18T13:50:16;18.10;24.40
939;DHT22;456;53.584;9.968;2023-11-18T13:52:42;18.10;24.40
939;DHT22;456;53.584;9.968;2023-11-18T13:55:11;18.10;24.40
939;DHT22;456;53.584;9.968;2023-11-18T13:57:45;18.10;24.40
939;DHT22;456;53.584;9.968;2023-11-18T14:00:11;18.10;24.40
939;DHT22;456;53.584;9.968;2023-11-18T14:02:41;18.10;24.40
939;DHT22;456;53.584;9.968;2023-11-18T14:05:15;18.10;24.40
939;DHT22;456;53.584;9.968;2023-11-18T14:07:42;18.10;24.40
939;DHT22;456;53.584;9.968;2023-11-18T14:10:09;18.10;24.40
939;DHT22;456;53.584;9.968;2023-11-18T14:12:39;18.10;24.40
939;DHT22;456;53.584;9.968;2023-11-18T14:15:05;18.10;24.40
939;DHT22;456;53.584;9.968;2023-11-18T14:17:30;18.10;24.40
939;DHT22;456;53.584;9.968;2023-11-18T14:19:56;18.10;24.40
939;DHT22;456;53.584;9.968;2023-11-18T14:22:22;18.10;24.40
939;DHT22;456;53.584;9.968;2023-11-18T14:24:48;18.10;24.40
939;DHT22;456;53.584;9.968;2023-11-18T14:27:14;18.10;24.40
939;DHT22;456;53.584;9.968;2023-11-18T14:29:40;18.10;24.40
939;DHT22;456;53.584;9.968;2023-11-18T14:32:05;18.10;24.40
939;DHT22;456;53.584;9.968;2023-11-18T14:34:34;18.10;24.40
939;DHT22;456;53.584;9.968;2023-11-18T14:36:59;18.10;24.40
939;DHT22;456;53.584;9.968;2023-11-18T14:39:27;18.10;24.40
939;DHT22;456;53.584;9.968;2023-11-18T14:41:53;18.10;24.40
939;DHT22;456;53.584;9.968;2023-11-18T14:44:18;18.10;24.40
939;DHT22;456;53.584;9.968;2023-11-18T14:46:45;18.10;24.40
939;DHT22;456;53.584;9.968;2023-11-18T14:49:12;18.10;24.40
939;DHT22;456;53.584;9.968;2023-11-18T14:51:38;18.10;24.40
939;DHT22;456;53.584;9.968;2023-11-18T14:54:05;18.10;24.40
939;DHT22;456;53.584;9.968;2023-11-18T14:56:31;18.20;24.50
939;DHT22;456;53.584;9.968;2023-11-18T14:58:56;18.20;24.40
939;DHT22;456;53.584;9.968;2023-11-18T15:01:22;18.20;24.50
939;DHT22;456;53.584;9.968;2023-11-18T15:03:48;18.20;24.50
939;DHT22;456;53.584;9.968;2023-11-18T15:06:13;18.20;24.50
939;DHT22;456;53.584;9.968;2023-11-18T15:08:39;18.20;24.50
939;DHT22;456;53.584;9.968;2023-11-18T15:11:07;18.20;24.50
939;DHT22;456;53.584;9.968;2023-11-18T15:13:33;18.20;24.50
939;DHT22;456;53.584;9.968;2023-11-18T15:15:58;18.20;24.70
939;DHT22;456;53.584;9.968;2023-11-18T15:18:24;18.20;24.60
939;DHT22;456;53.584;9.968;2023-11-18T15:20:49;18.20;24.70
939;DHT22;456;53.584;9.968;2023-11-18T15:23:17;18.20;24.70
939;DHT22;456;53.584;9.968;2023-11-18T15:25:43;18.20;24.70
939;DHT22;456;53.584;9.968;2023-11-18T15:28:09;18.10;24.60
939;DHT22;456;53.584;9.968;2023-11-18T15:30:39;18.10;24.60
939;DHT22;456;53.584;9.968;2023-11-18T15:33:05;18.10;24.60
939;DHT22;456;53.584;9.968;2023-11-18T15:35:37;18.10;24.60
939;DHT22;456;53.584;9.968;2023-11-18T15:38:09;18.10;24.70
939;DHT22;456;53.584;9.968;2023-11-18T15:40:35;18.10;24.70
939;DHT22;456;53.584;9.968;2023-11-18T15:43:02;18.10;24.70
939;DHT22;456;53.584;9.968;2023-11-18T15:45:31;18.10;25.20
939;DHT22;456;53.584;9.968;2023-11-18T15:47:58;18.10;24.70
939;DHT22;456;53.584;9.968;2023-11-18T15:50:26;18.10;24.70
939;DHT22;456;53.584;9.968;2023-11-18T15:52:54;18.10;24.70
939;DHT22;456;53.584;9.968;2023-11-18T15:55:21;18.10;24.60
939;DHT22;456;53.584;9.968;2023-11-18T15:57:51;18.20;24.70
939;DHT22;456;53.584;9.968;2023-11-18T16:00:22;18.20;24.70
939;DHT22;456;53.584;9.968;2023-11-18T16:02:51;18.20;24.70
939;DHT22;456;53.584;9.968;2023-11-18T16:05:18;18.20;24.70
939;DHT22;456;53.584;9.968;2023-11-18T16:07:44;18.20;24.70
939;DHT22;456;53.584;9.968;2023-11-18T16:10:14;18.20;24.70
939;DHT22;456;53.584;9.968;2023-11-18T16:12:47;18.20;24.70
939;DHT22;456;53.584;9.968;2023-11-18T16:15:14;18.20;24.60
939;DHT22;456;53.584;9.968;2023-11-18T16:17:41;18.20;24.80
939;DHT22;456;53.584;9.968;2023-11-18T16:20:07;18.20;24.70
939;DHT22;456;53.584;9.968;2023-11-18T16:22:34;18.20;24.70
939;DHT22;456;53.584;9.968;2023-11-18T16:25:00;18.20;24.80
939;DHT22;456;53.584;9.968;2023-11-18T16:27:25;18.20;24.70
939;DHT22;456;53.584;9.968;2023-11-18T16:29:51;18.20;24.70
939;DHT22;456;53.584;9.968;2023-11-18T16:32:17;18.20;24.70
939;DHT22;456;53.584;9.968;2023-11-18T16:34:43;18.20;24.70
939;DHT22;456;53.584;9.968;2023-11-18T16:37:08;18.20;25.30
939;DHT22;456;53.584;9.968;2023-11-18T16:39:34;18.20;24.80
939;DHT22;456;53.584;9.968;2023-11-18T16:41:59;18.20;24.80
939;DHT22;456;53.584;9.968;2023-11-18T16:44:25;18.20;24.80
939;DHT22;456;53.584;9.968;2023-11-18T16:46:51;18.20;24.80
939;DHT22;456;53.584;9.968;2023-11-18T16:49:17;18.20;24.80
939;DHT22;456;53.584;9.968;2023-11-18T16:51:43;18.20;24.80
939;DHT22;456;53.584;9.968;2023-11-18T16:54:09;18.20;24.80
939;DHT22;456;53.584;9.968;2023-11-18T16:56:35;18.20;24.80
939;DHT22;456;53.584;9.968;2023-11-18T16:59:01;18.20;24.80
939;DHT22;456;53.584;9.968;2023-11-18T17:01:28;18.20;24.80
939;DHT22;456;53.584;9.968;2023-11-18T17:03:54;18.20;24.80